Time;durP1;ratioP1;P1;durP2;ratioP2;P2;SDS_P1;SDS_P2;PMS_P1;PMS_P2;Temp;Humidity;BMP_temperature;BMP_pressure;BME280_temperature;BME280_humidity;BME280_pressure;Samples;Min_cycle;Max_cycle;Signal;HPM_P1;HPM_P2
2024/02/21 00:01:22;;;;;;;17.47;6.10;;;8.70;99.90;;;;;;5053811;28;20244;-63
2024/02/21 00:03:48;;;;;;;16.40;6.10;;;8.70;99.90;;;;;;5072693;28;20564;-63
2024/02/21 00:06:13;;;;;;;17.33;6.60;;;8.60;99.90;;;;;;5072667;28;20512;-62
2024/02/21 00:08:39;;;;;;;15.37;6.97;;;8.60;99.90;;;;;;5072507;28;20178;-63
2024/02/21 00:11:05;;;;;;;13.97;4.90;;;8.60;99.90;;;;;;5073313;28;20235;-61
2024/02/21 00:13:30;;;;;;;15.43;4.90;;;8.70;99.90;;;;;;5070045;28;20182;-62
2024/02/21 00:15:56;;;;;;;12.27;6.27;;;8.70;99.90;;;;;;5072245;28;20239;-62
2024/02/21 00:18:21;;;;;;;14.97;6.07;;;8.70;99.90;;;;;;5072006;28;20590;-62
2024/02/21 00:20:47;;;;;;;12.40;5.87;;;8.60;99.90;;;;;;5069634;28;20187;-60
2024/02/21 00:23:13;;;;;;;13.87;6.20;;;8.60;99.90;;;;;;5071870;28;20190;-61
2024/02/21 00:25:38;;;;;;;18.83;6.50;;;8.50;99.90;;;;;;5054508;28;20209;-62
2024/02/21 00:28:05;;;;;;;16.17;6.17;;;8.40;99.90;;;;;;5071591;28;20190;-61
2024/02/21 00:30:31;;;;;;;10.73;5.30;;;8.50;99.90;;;;;;5071511;28;20192;-62
2024/02/21 00:32:57;;;;;;;15.47;7.80;;;8.40;99.90;;;;;;5071805;28;20412;-61
2024/02/21 00:35:22;;;;;;;12.47;7.60;;;8.60;99.90;;;;;;5071655;28;20596;-63
2024/02/21 00:37:48;;;;;;;12.03;5.70;;;8.50;99.90;;;;;;5072571;28;20177;-62
2024/02/21 00:40:19;;;;;;;13.30;5.83;;;8.40;99.90;;;;;;5071150;28;20228;-62
2024/02/21 00:42:45;;;;;;;13.90;5.60;;;8.40;99.90;;;;;;5063480;28;20228;-63
2024/02/21 00:45:11;;;;;;;12.90;5.60;;;8.50;99.90;;;;;;5071008;28;20459;-63
2024/02/21 00:47:37;;;;;;;17.77;7.53;;;8.40;99.90;;;;;;5071022;28;20523;-62
2024/02/21 00:50:03;;;;;;;15.03;6.43;;;8.40;99.90;;;;;;5065009;28;20190;-62
2024/02/21 00:52:28;;;;;;;11.23;4.80;;;8.40;99.90;;;;;;5071332;28;20611;-62
2024/02/21 00:54:54;;;;;;;13.53;5.27;;;8.40;99.90;;;;;;5067090;28;20706;-63
2024/02/21 00:57:20;;;;;;;15.13;5.30;;;8.30;99.90;;;;;;5071178;28;20193;-63
2024/02/21 00:59:45;;;;;;;17.47;6.20;;;8.40;99.90;;;;;;5071478;28;20208;-63
2024/02/21 01:02:11;;;;;;;13.70;6.43;;;8.40;99.90;;;;;;5064346;28;20186;-63
2024/02/21 01:04:36;;;;;;;9.90;5.33;;;8.40;99.90;;;;;;5070940;28;20908;-63
2024/02/21 01:07:02;;;;;;;9.50;4.73;;;8.30;99.90;;;;;;5053406;28;20178;-63
2024/02/21 01:09:28;;;;;;;10.30;5.90;;;8.30;99.90;;;;;;5071196;28;20670;-63
2024/02/21 01:11:53;;;;;;;9.10;5.30;;;8.40;99.90;;;;;;5071014;28;20186;-62
2024/02/21 01:14:19;;;;;;;10.17;4.27;;;8.40;99.90;;;;;;5071088;28;20215;-62
2024/02/21 01:16:44;;;;;;;17.13;5.03;;;8.30;99.90;;;;;;5070645;28;20178;-62
2024/02/21 01:19:10;;;;;;;13.47;5.77;;;8.30;99.90;;;;;;5071133;28;20186;-61
2024/02/21 01:21:35;;;;;;;17.40;5.07;;;8.40;99.90;;;;;;5070164;28;20192;-62
2024/02/21 01:24:01;;;;;;;10.07;4.23;;;8.50;99.90;;;;;;5070928;28;20201;-62
2024/02/21 01:26:27;;;;;;;14.33;5.33;;;8.50;99.90;;;;;;5070696;28;20577;-63
2024/02/21 01:28:52;;;;;;;8.40;5.20;;;8.50;99.90;;;;;;5071208;28;20188;-61
2024/02/21 01:31:18;;;;;;;7.27;4.00;;;8.60;99.90;;;;;;5070610;28;20189;-63
2024/02/21 01:33:43;;;;;;;23.73;6.03;;;8.60;99.90;;;;;;5070649;28;20210;-62
2024/02/21 01:36:09;;;;;;;12.00;5.33;;;8.50;99.90;;;;;;5071064;28;20296;-63
2024/02/21 01:38:34;;;;;;;8.70;4.33;;;8.40;99.90;;;;;;5070819;28;20184;-63
2024/02/21 01:41:00;;;;;;;9.17;5.07;;;8.60;99.90;;;;;;5068155;28;20205;-63
2024/02/21 01:43:26;;;;;;;16.43;4.77;;;8.50;99.90;;;;;;5069914;28;20192;-65
2024/02/21 01:46:01;;;;;;;9.33;4.40;;;8.50;99.90;;;;;;5070157;28;20276;-62
2024/02/21 01:48:27;;;;;;;7.10;4.37;;;8.50;99.90;;;;;;5070109;28;20193;-63
2024/02/21 01:50:54;;;;;;;10.63;5.57;;;8.60;99.90;;;;;;5070918;28;20516;-62
2024/02/21 01:53:31;;;;;;;12.20;4.57;;;8.70;99.90;;;;;;5071185;28;20180;-63
2024/02/21 01:55:56;;;;;;;8.97;5.40;;;8.60;99.90;;;;;;5070742;28;20458;-64
2024/02/21 01:58:23;;;;;;;11.57;5.20;;;8.50;99.90;;;;;;5070204;28;20941;-64
2024/02/21 02:00:51;;;;;;;8.23;3.57;;;8.40;99.90;;;;;;5070021;28;20420;-64
2024/02/21 02:03:17;;;;;;;11.60;4.33;;;8.40;99.90;;;;;;5070771;28;20471;-62
2024/02/21 02:05:46;;;;;;;10.47;4.43;;;8.40;99.90;;;;;;5070511;28;20466;-62
2024/02/21 02:08:14;;;;;;;13.57;4.60;;;8.40;99.90;;;;;;5070780;28;20797;-63
2024/02/21 02:10:40;;;;;;;9.70;4.50;;;8.50;99.90;;;;;;5069881;28;20481;-62
2024/02/21 02:13:06;;;;;;;13.27;4.57;;;8.60;99.90;;;;;;5070766;28;20424;-62
2024/02/21 02:15:45;;;;;;;11.83;5.27;;;8.60;99.90;;;;;;5070044;28;20869;-63
2024/02/21 02:18:12;;;;;;;15.23;5.77;;;8.50;99.90;;;;;;5064902;28;20213;-63
2024/02/21 02:20:38;;;;;;;7.40;4.37;;;8.50;99.90;;;;;;5070319;28;20417;-63
2024/02/21 02:23:23;;;;;;;12.20;6.53;;;8.60;99.90;;;;;;5070361;28;20426;-63
2024/02/21 02:25:53;;;;;;;11.60;4.57;;;8.50;99.90;;;;;;5070178;28;20420;-63
2024/02/21 02:28:19;;;;;;;7.87;6.53;;;8.50;99.90;;;;;;5068793;28;20431;-63
2024/02/21 02:30:45;;;;;;;10.97;5.30;;;8.40;99.90;;;;;;5070426;28;20420;-63
2024/02/21 02:33:11;;;;;;;9.40;4.53;;;8.30;99.90;;;;;;5065324;28;20431;-63
2024/02/21 02:35:37;;;;;;;11.77;5.40;;;8.30;99.90;;;;;;5067529;28;20488;-63
2024/02/21 02:38:03;;;;;;;7.63;4.40;;;8.30;99.90;;;;;;5070461;28;20189;-64
2024/02/21 02:40:29;;;;;;;11.47;4.23;;;8.30;99.90;;;;;;5070347;28;20178;-62
2024/02/21 02:42:55;;;;;;;18.50;6.67;;;8.30;99.90;;;;;;5070137;28;20499;-62
2024/02/21 02:45:26;;;;;;;8.57;4.43;;;8.30;99.90;;;;;;5069512;28;20480;-62
2024/02/21 02:47:52;;;;;;;14.83;4.50;;;8.30;99.90;;;;;;5070564;28;20660;-62
2024/02/21 02:50:17;;;;;;;13.00;5.30;;;8.20;99.90;;;;;;5070361;28;20929;-61
2024/02/21 02:52:43;;;;;;;14.13;4.83;;;8.20;99.90;;;;;;5069633;28;20492;-61
2024/02/21 02:55:09;;;;;;;12.07;4.53;;;8.10;99.90;;;;;;5073268;28;20551;-61
2024/02/21 02:57:34;;;;;;;11.33;4.53;;;8.10;99.90;;;;;;5055529;28;20767;-61
2024/02/21 03:00:00;;;;;;;14.57;4.70;;;8.20;99.90;;;;;;5073678;28;20666;-61
2024/02/21 03:02:25;;;;;;;9.33;6.07;;;8.20;99.90;;;;;;5073329;28;20185;-62
2024/02/21 03:04:51;;;;;;;7.87;5.37;;;8.00;99.90;;;;;;5073095;28;20201;-61
2024/02/21 03:07:17;;;;;;;9.87;5.10;;;8.10;99.90;;;;;;5071986;28;20201;-62
2024/02/21 03:09:45;;;;;;;14.30;4.93;;;8.10;99.90;;;;;;5073142;28;20192;-61
2024/02/21 03:12:11;;;;;;;8.10;5.20;;;8.00;99.90;;;;;;5073381;28;20186;-62
2024/02/21 03:14:36;;;;;;;18.43;5.80;;;8.10;99.90;;;;;;5073213;28;20463;-62
2024/02/21 03:17:03;;;;;;;13.67;5.67;;;8.00;99.90;;;;;;5072977;28;20435;-61
2024/02/21 03:19:29;;;;;;;7.67;4.87;;;7.90;99.90;;;;;;5073473;28;20182;-62
2024/02/21 03:21:55;;;;;;;11.37;7.73;;;8.00;99.90;;;;;;5065331;28;20418;-63
2024/02/21 03:24:21;;;;;;;12.73;5.53;;;7.90;99.90;;;;;;5073017;28;20852;-60
2024/02/21 03:26:47;;;;;;;12.37;5.90;;;7.90;99.90;;;;;;5072909;28;20414;-61
2024/02/21 03:29:14;;;;;;;11.97;6.20;;;7.90;99.90;;;;;;5073246;28;20423;-62
2024/02/21 03:31:40;;;;;;;8.43;5.07;;;8.00;99.90;;;;;;5072187;28;20452;-60
2024/02/21 03:34:06;;;;;;;16.47;7.50;;;7.90;99.90;;;;;;5054912;28;20452;-61
2024/02/21 03:36:32;;;;;;;12.83;5.80;;;7.80;99.90;;;;;;5073071;28;20466;-59
2024/02/21 03:38:57;;;;;;;12.03;5.23;;;7.80;99.90;;;;;;5073426;28;20261;-63
2024/02/21 03:41:23;;;;;;;20.30;5.73;;;7.60;99.90;;;;;;5072912;28;20191;-62
2024/02/21 03:43:48;;;;;;;9.60;4.87;;;7.80;99.90;;;;;;5071964;28;20213;-62
2024/02/21 03:46:15;;;;;;;16.57;6.03;;;7.70;99.90;;;;;;5072916;28;20191;-61
2024/02/21 03:48:41;;;;;;;11.23;6.30;;;7.70;99.90;;;;;;5072694;28;20192;-61
2024/02/21 03:51:06;;;;;;;16.70;7.33;;;7.80;99.90;;;;;;5073671;28;20427;-62
2024/02/21 03:53:32;;;;;;;15.40;6.27;;;7.80;99.90;;;;;;5072510;28;20771;-62
2024/02/21 03:56:03;;;;;;;12.50;6.80;;;7.70;99.90;;;;;;5072194;28;20261;-61
2024/02/21 03:58:33;;;;;;;17.00;6.40;;;7.80;99.90;;;;;;5072691;28;20192;-62
2024/02/21 04:01:03;;;;;;;8.17;6.50;;;7.80;99.90;;;;;;5071564;28;20413;-61
2024/02/21 04:03:30;;;;;;;17.23;6.60;;;7.80;99.90;;;;;;5072597;28;20420;-62
2024/02/21 04:05:56;;;;;;;13.30;6.60;;;7.80;99.90;;;;;;5071705;28;20421;-62
2024/02/21 04:08:22;;;;;;;11.30;6.17;;;7.80;99.90;;;;;;5072815;28;21242;-62
2024/02/21 04:10:48;;;;;;;12.63;6.90;;;7.70;99.90;;;;;;5072266;28;20313;-63
2024/02/21 04:13:14;;;;;;;13.77;6.63;;;7.80;99.90;;;;;;5072465;28;20431;-63
2024/02/21 04:15:39;;;;;;;10.90;6.07;;;7.80;99.90;;;;;;5071206;28;20218;-63
2024/02/21 04:18:05;;;;;;;12.87;6.70;;;7.80;99.90;;;;;;5072399;28;20181;-62
2024/02/21 04:20:32;;;;;;;14.33;6.60;;;7.80;99.90;;;;;;5072493;28;20192;-62
2024/02/21 04:22:57;;;;;;;18.00;7.93;;;7.90;99.90;;;;;;5072005;28;20211;-63
2024/02/21 04:25:23;;;;;;;9.30;6.40;;;7.90;99.90;;;;;;5071925;28;20446;-63
2024/02/21 04:27:49;;;;;;;15.63;6.20;;;7.90;99.90;;;;;;5071986;28;20191;-62
2024/02/21 04:30:15;;;;;;;11.93;6.80;;;7.70;99.90;;;;;;5071219;28;20648;-63
2024/02/21 04:32:41;;;;;;;16.70;7.50;;;7.80;99.90;;;;;;5071745;28;20193;-62
2024/02/21 04:35:07;;;;;;;19.23;7.83;;;7.70;99.90;;;;;;5071623;28;20476;-62
2024/02/21 04:37:33;;;;;;;11.00;6.40;;;7.70;99.90;;;;;;5072260;28;20437;-62
2024/02/21 04:39:59;;;;;;;11.83;6.10;;;7.70;99.90;;;;;;5064363;28;20513;-62
2024/02/21 04:42:24;;;;;;;11.23;6.80;;;7.60;99.90;;;;;;5072260;28;20281;-61
2024/02/21 04:44:50;;;;;;;11.90;6.33;;;7.60;99.90;;;;;;5070980;28;20216;-62
2024/02/21 04:47:16;;;;;;;20.00;8.47;;;7.60;99.90;;;;;;5071914;28;20736;-61
2024/02/21 04:49:41;;;;;;;13.70;7.40;;;7.60;99.90;;;;;;5071745;28;20195;-61
2024/02/21 04:52:07;;;;;;;19.70;7.63;;;7.60;99.90;;;;;;5071809;28;20218;-64
2024/02/21 04:54:32;;;;;;;14.10;7.37;;;7.60;99.90;;;;;;5071639;28;20360;-63
2024/02/21 04:56:58;;;;;;;16.10;8.20;;;7.60;99.90;;;;;;5071492;28;20230;-63
2024/02/21 04:59:23;;;;;;;9.50;6.83;;;7.60;99.90;;;;;;5071307;28;20185;-63
2024/02/21 05:01:49;;;;;;;11.17;6.00;;;7.60;99.90;;;;;;5071122;28;20192;-63
2024/02/21 05:04:15;;;;;;;14.07;7.27;;;7.60;99.90;;;;;;5071265;28;20199;-63
2024/02/21 05:06:41;;;;;;;12.37;5.97;;;7.50;99.90;;;;;;5071032;28;20646;-63
2024/02/21 05:09:09;;;;;;;10.23;5.47;;;7.50;99.90;;;;;;5071311;28;20430;-63
2024/02/21 05:11:36;;;;;;;14.03;6.33;;;7.50;99.90;;;;;;5071381;28;20426;-63
2024/02/21 05:14:02;;;;;;;12.80;7.37;;;7.60;99.90;;;;;;5062524;28;20429;-62
2024/02/21 05:16:28;;;;;;;10.87;6.77;;;7.60;99.90;;;;;;5071294;28;20518;-62
2024/02/21 05:18:53;;;;;;;12.67;6.80;;;7.60;99.90;;;;;;5071409;28;20505;-63
2024/02/21 05:21:19;;;;;;;18.97;7.80;;;7.50;99.90;;;;;;5070803;28;20182;-63
2024/02/21 05:23:45;;;;;;;14.90;7.17;;;7.50;99.90;;;;;;5070710;28;20623;-62
2024/02/21 05:26:10;;;;;;;12.27;8.27;;;7.50;99.90;;;;;;5071055;28;20321;-63
2024/02/21 05:28:36;;;;;;;12.97;7.70;;;7.50;99.90;;;;;;5071446;28;20386;-62
2024/02/21 05:31:02;;;;;;;11.17;6.13;;;7.50;99.90;;;;;;5068730;28;20175;-63
2024/02/21 05:33:27;;;;;;;14.33;6.43;;;7.60;99.90;;;;;;5071184;28;20195;-63
2024/02/21 05:35:53;;;;;;;15.00;7.50;;;7.60;99.90;;;;;;5070828;28;20605;-62
2024/02/21 05:38:18;;;;;;;12.23;6.67;;;7.60;99.90;;;;;;5071270;28;20215;-63
2024/02/21 05:40:47;;;;;;;17.60;7.60;;;7.60;99.90;;;;;;5070869;28;20179;-61
2024/02/21 05:43:13;;;;;;;12.67;7.43;;;7.60;99.90;;;;;;5071485;28;20257;-62
2024/02/21 05:45:39;;;;;;;15.03;7.60;;;7.60;99.90;;;;;;5070689;28;20545;-62
2024/02/21 05:48:05;;;;;;;23.73;8.90;;;7.60;99.90;;;;;;5066481;28;20522;-59
2024/02/21 05:50:32;;;;;;;16.53;8.03;;;7.60;99.90;;;;;;5040945;28;20187;-61
2024/02/21 05:52:58;;;;;;;16.53;7.40;;;7.60;99.90;;;;;;5030096;28;20819;-61
2024/02/21 05:55:23;;;;;;;16.07;6.83;;;7.60;99.90;;;;;;5067642;28;20490;-61
2024/02/21 05:57:49;;;;;;;13.57;7.20;;;7.60;99.90;;;;;;5070596;28;20448;-63
2024/02/21 06:00:15;;;;;;;14.13;8.07;;;7.60;99.90;;;;;;5070270;28;20184;-63
2024/02/21 06:02:41;;;;;;;13.57;7.53;;;7.60;99.90;;;;;;5052632;28;20946;-63
2024/02/21 06:05:08;;;;;;;14.03;6.83;;;7.60;99.90;;;;;;5070612;28;20440;-62
2024/02/21 06:07:34;;;;;;;14.20;7.67;;;7.60;99.90;;;;;;5070676;28;20931;-63
2024/02/21 06:10:03;;;;;;;20.03;7.97;;;7.60;99.90;;;;;;5069788;28;20423;-62
2024/02/21 06:12:29;;;;;;;12.97;7.50;;;7.60;99.90;;;;;;5069494;28;20851;-62
2024/02/21 06:14:54;;;;;;;15.80;7.03;;;7.60;99.90;;;;;;5069533;28;20528;-62
2024/02/21 06:17:20;;;;;;;14.57;8.40;;;7.60;99.90;;;;;;5070604;28;20550;-61
2024/02/21 06:19:45;;;;;;;15.77;8.13;;;7.60;99.90;;;;;;5070407;28;20213;-62
2024/02/21 06:22:11;;;;;;;15.60;8.20;;;7.70;99.90;;;;;;5069819;28;20208;-62
2024/02/21 06:24:38;;;;;;;13.83;7.73;;;7.70;99.90;;;;;;5070453;28;20215;-63
2024/02/21 06:27:05;;;;;;;19.50;8.07;;;7.70;99.90;;;;;;5070459;28;20193;-62
2024/02/21 06:29:31;;;;;;;13.67;7.13;;;7.70;99.90;;;;;;5073778;28;20538;-63
2024/02/21 06:31:57;;;;;;;13.33;8.17;;;7.70;99.90;;;;;;5072305;28;20534;-59
2024/02/21 06:34:23;;;;;;;18.63;9.97;;;7.80;99.90;;;;;;5073927;28;20440;-60
2024/02/21 06:36:49;;;;;;;16.13;8.67;;;7.70;99.90;;;;;;5069807;28;20179;-62
2024/02/21 06:39:15;;;;;;;22.47;7.83;;;7.80;99.90;;;;;;5074450;28;20426;-63
2024/02/21 06:41:41;;;;;;;21.13;7.40;;;7.80;99.90;;;;;;5074011;28;20416;-63
2024/02/21 06:44:06;;;;;;;17.23;8.20;;;7.80;99.90;;;;;;5074092;28;20213;-58
2024/02/21 06:46:33;;;;;;;19.50;8.47;;;7.80;99.90;;;;;;5073261;28;20180;-62
2024/02/21 06:49:00;;;;;;;17.23;7.53;;;7.80;99.90;;;;;;5073606;28;20195;-63
2024/02/21 06:51:26;;;;;;;22.47;8.73;;;7.90;99.90;;;;;;5072686;28;20425;-63
2024/02/21 06:53:51;;;;;;;17.93;7.17;;;7.90;99.90;;;;;;5064008;28;20582;-62
2024/02/21 06:56:17;;;;;;;16.13;9.87;;;7.90;99.90;;;;;;5073672;28;20896;-61
2024/02/21 06:58:43;;;;;;;19.37;8.60;;;7.90;99.90;;;;;;5074175;28;20184;-61
2024/02/21 07:01:09;;;;;;;15.63;8.97;;;8.00;99.90;;;;;;5066385;28;20256;-63
2024/02/21 07:03:34;;;;;;;13.73;7.57;;;8.10;99.90;;;;;;5074186;28;20217;-59
2024/02/21 07:06:00;;;;;;;9.37;7.80;;;8.10;99.90;;;;;;5070402;28;20953;-63
2024/02/21 07:08:26;;;;;;;17.30;9.27;;;8.00;99.90;;;;;;5074658;28;20392;-63
2024/02/21 07:10:51;;;;;;;20.23;7.70;;;8.20;99.90;;;;;;5068280;28;20242;-62
2024/02/21 07:13:17;;;;;;;16.77;8.23;;;8.30;99.90;;;;;;5074226;28;20514;-62
2024/02/21 07:15:43;;;;;;;14.93;8.17;;;8.30;99.90;;;;;;5072754;28;20267;-63
2024/02/21 07:18:08;;;;;;;19.63;9.27;;;8.30;99.90;;;;;;5073640;28;20231;-61
2024/02/21 07:20:36;;;;;;;20.13;9.07;;;8.20;99.90;;;;;;5073771;28;20188;-63
2024/02/21 07:23:02;;;;;;;13.40;8.23;;;8.20;99.90;;;;;;5072501;28;20168;-58
2024/02/21 07:25:27;;;;;;;18.57;10.73;;;8.40;99.90;;;;;;5073067;28;20478;-59
2024/02/21 07:27:53;;;;;;;16.47;9.00;;;8.40;99.90;;;;;;5073219;28;20185;-59
2024/02/21 07:30:20;;;;;;;13.33;8.40;;;8.30;99.90;;;;;;5072051;28;20810;-59
2024/02/21 07:32:48;;;;;;;15.50;9.37;;;8.40;99.90;;;;;;5070980;28;20463;-62
2024/02/21 07:35:14;;;;;;;13.50;7.97;;;8.40;99.90;;;;;;5072896;28;20213;-62
2024/02/21 07:37:39;;;;;;;18.97;8.07;;;8.40;99.90;;;;;;5072247;28;20514;-63
2024/02/21 07:40:16;;;;;;;11.50;7.83;;;8.50;99.90;;;;;;5068668;28;20200;-59
2024/02/21 07:42:43;;;;;;;16.33;9.47;;;8.70;99.90;;;;;;5071590;28;20172;-62
2024/02/21 07:45:10;;;;;;;16.30;8.10;;;8.60;99.90;;;;;;5072140;28;20456;-63
2024/02/21 07:47:36;;;;;;;18.67;8.43;;;8.50;99.90;;;;;;5071609;28;20445;-62
2024/02/21 07:50:04;;;;;;;12.77;8.03;;;8.60;99.90;;;;;;5072985;28;20442;-62
2024/02/21 07:52:30;;;;;;;15.63;7.70;;;8.60;99.90;;;;;;5072225;28;20432;-67
2024/02/21 07:54:56;;;;;;;13.17;6.97;;;8.50;99.90;;;;;;5046458;28;20519;-62
2024/02/21 07:57:22;;;;;;;14.70;7.80;;;8.60;99.90;;;;;;5072082;28;20192;-64
2024/02/21 07:59:48;;;;;;;13.40;8.13;;;8.50;99.90;;;;;;5072876;28;20182;-62
2024/02/21 08:02:14;;;;;;;12.07;7.20;;;8.40;99.90;;;;;;5072296;28;20469;-63
2024/02/21 08:04:40;;;;;;;13.37;6.87;;;8.40;99.90;;;;;;5072289;28;20448;-59
2024/02/21 08:07:05;;;;;;;9.97;7.50;;;8.40;99.90;;;;;;5067433;28;20443;-61
2024/02/21 08:09:31;;;;;;;18.40;8.20;;;8.40;99.90;;;;;;5072185;28;20181;-60
2024/02/21 08:11:57;;;;;;;17.23;8.40;;;8.40;99.90;;;;;;5072716;28;20209;-56
2024/02/21 08:14:24;;;;;;;15.43;8.00;;;8.40;99.90;;;;;;5072696;28;20716;-60
2024/02/21 08:16:50;;;;;;;18.93;7.63;;;8.50;99.90;;;;;;5072799;28;20563;-63
2024/02/21 08:19:16;;;;;;;9.93;6.33;;;8.50;99.90;;;;;;5072591;28;20424;-62
2024/02/21 08:21:42;;;;;;;13.40;9.57;;;8.50;99.90;;;;;;5072505;28;20427;-59
2024/02/21 08:24:08;;;;;;;9.40;6.97;;;8.50;99.90;;;;;;5071859;28;20440;-59
2024/02/21 08:26:33;;;;;;;10.63;6.20;;;8.50;99.90;;;;;;5072144;28;20186;-61
2024/02/21 08:29:00;;;;;;;12.97;7.10;;;8.50;99.90;;;;;;5072183;28;20651;-62
2024/02/21 08:31:31;;;;;;;10.20;6.77;;;8.50;99.90;;;;;;5071467;28;20611;-61
2024/02/21 08:34:02;;;;;;;17.63;9.10;;;8.60;99.90;;;;;;5071592;28;20803;-63
2024/02/21 08:36:32;;;;;;;21.63;8.10;;;8.60;99.90;;;;;;5072285;28;20856;-62
2024/02/21 08:38:58;;;;;;;19.73;7.73;;;8.60;99.90;;;;;;5071680;28;20423;-63
2024/02/21 08:41:24;;;;;;;14.07;6.70;;;8.60;99.90;;;;;;5071554;28;20862;-63
2024/02/21 08:43:53;;;;;;;14.50;7.33;;;8.70;99.90;;;;;;5070776;28;20797;-63
2024/02/21 08:46:24;;;;;;;17.20;8.13;;;8.70;99.90;;;;;;5070977;28;20439;-62
2024/02/21 08:48:52;;;;;;;18.57;7.60;;;8.80;99.90;;;;;;5071647;28;20444;-62
2024/02/21 08:51:18;;;;;;;14.10;7.10;;;8.90;99.90;;;;;;5071543;28;20420;-62
2024/02/21 08:53:44;;;;;;;18.40;7.43;;;8.90;99.90;;;;;;5070685;28;20424;-63
2024/02/21 08:56:10;;;;;;;9.20;7.17;;;9.10;99.90;;;;;;5068909;28;20464;-63
2024/02/21 08:58:36;;;;;;;11.60;6.23;;;9.10;99.90;;;;;;5072113;28;20767;-60
2024/02/21 09:01:04;;;;;;;11.10;7.60;;;9.10;99.90;;;;;;5071611;28;20174;-62
2024/02/21 09:03:31;;;;;;;16.53;8.00;;;9.30;99.90;;;;;;5070980;28;20420;-61
2024/02/21 09:05:58;;;;;;;11.03;7.10;;;9.20;99.90;;;;;;5071709;28;20435;-59
2024/02/21 09:08:24;;;;;;;16.17;7.50;;;9.10;99.90;;;;;;5071979;28;20976;-62
2024/02/21 09:10:50;;;;;;;12.30;8.30;;;9.10;99.90;;;;;;5069332;28;20789;-62
2024/02/21 09:13:15;;;;;;;12.60;7.20;;;9.10;99.90;;;;;;5063316;28;20420;-62
2024/02/21 09:15:42;;;;;;;13.73;7.77;;;9.20;99.90;;;;;;5070695;28;20692;-63
2024/02/21 09:18:07;;;;;;;13.97;7.90;;;9.10;99.90;;;;;;5070894;28;20186;-58
2024/02/21 09:20:33;;;;;;;13.23;7.77;;;9.20;99.90;;;;;;5071022;28;20778;-62
2024/02/21 09:22:59;;;;;;;12.50;8.23;;;9.20;99.90;;;;;;5069621;28;20223;-63
2024/02/21 09:25:24;;;;;;;14.23;7.57;;;9.30;99.90;;;;;;5071216;28;20289;-63
2024/02/21 09:27:51;;;;;;;14.57;7.90;;;9.30;99.90;;;;;;5070978;28;20186;-64
2024/02/21 09:30:18;;;;;;;11.67;9.00;;;9.50;99.90;;;;;;5071042;28;20232;-62
2024/02/21 09:32:44;;;;;;;12.90;8.13;;;9.50;99.90;;;;;;5070063;28;20424;-64
2024/02/21 09:35:10;;;;;;;11.83;8.83;;;9.60;99.90;;;;;;5070666;28;20553;-62
2024/02/21 09:37:36;;;;;;;11.67;7.77;;;9.60;99.90;;;;;;5070605;28;20194;-63
2024/02/21 09:40:02;;;;;;;17.53;11.10;;;9.60;99.90;;;;;;5071044;28;20185;-61
2024/02/21 09:42:39;;;;;;;10.40;7.67;;;9.60;99.90;;;;;;5070006;28;20204;-63
2024/02/21 09:45:09;;;;;;;12.43;7.60;;;9.70;99.90;;;;;;5068980;28;21027;-63
2024/02/21 09:48:00;;;;;;;11.90;7.93;;;9.90;99.90;;;;;;5070206;28;20801;-62
2024/02/21 09:50:29;;;;;;;15.63;7.73;;;9.80;99.90;;;;;;5070608;28;20422;-62
2024/02/21 09:52:57;;;;;;;15.63;8.50;;;9.90;99.90;;;;;;5029125;28;20453;-63
2024/02/21 09:55:23;;;;;;;13.40;7.60;;;10.00;99.90;;;;;;5053577;28;20498;-63
2024/02/21 09:57:51;;;;;;;12.00;8.83;;;10.30;99.90;;;;;;5071436;28;20517;-63
2024/02/21 10:00:21;;;;;;;12.77;8.07;;;10.30;99.90;;;;;;5071014;28;20575;-61
2024/02/21 10:02:49;;;;;;;10.60;7.73;;;10.20;99.90;;;;;;5066071;28;20425;-62
2024/02/21 10:05:15;;;;;;;13.37;9.20;;;10.10;99.90;;;;;;5057436;28;20534;-62
2024/02/21 10:07:41;;;;;;;17.00;8.40;;;10.30;99.90;;;;;;5075355;28;20517;-61
2024/02/21 10:10:07;;;;;;;11.33;8.03;;;10.20;99.90;;;;;;5074783;28;20976;-61
2024/02/21 10:12:33;;;;;;;15.30;8.90;;;10.20;99.90;;;;;;5074765;28;20428;-61
2024/02/21 10:15:06;;;;;;;13.80;7.10;;;10.30;99.90;;;;;;5074633;28;20541;-61
2024/02/21 10:17:34;;;;;;;11.30;6.93;;;10.30;99.90;;;;;;5073952;28;20181;-63
2024/02/21 10:20:10;;;;;;;12.43;8.00;;;10.40;99.90;;;;;;5073207;28;20419;-61
2024/02/21 10:22:36;;;;;;;18.70;7.93;;;10.30;99.90;;;;;;5074515;28;20766;-59
2024/02/21 10:25:08;;;;;;;11.03;7.83;;;10.50;99.90;;;;;;5074420;28;20485;-62
2024/02/21 10:27:35;;;;;;;10.90;8.93;;;10.30;99.90;;;;;;5072074;28;20923;-61
2024/02/21 10:30:00;;;;;;;10.57;7.50;;;10.40;99.90;;;;;;5074307;28;20424;-62
2024/02/21 10:32:28;;;;;;;12.20;9.00;;;10.30;99.90;;;;;;5072386;28;20429;-60
2024/02/21 10:35:08;;;;;;;11.97;8.00;;;10.40;99.90;;;;;;5073793;28;20612;-61
2024/02/21 10:37:34;;;;;;;14.00;7.03;;;10.50;99.90;;;;;;5070111;28;20431;-61
2024/02/21 10:40:01;;;;;;;19.80;8.70;;;10.50;99.90;;;;;;5073595;28;20421;-62
2024/02/21 10:42:34;;;;;;;12.70;7.83;;;10.50;99.90;;;;;;5074191;28;20186;-64
2024/02/21 10:45:04;;;;;;;11.23;7.87;;;10.40;99.90;;;;;;5073754;28;20453;-64
2024/02/21 10:47:32;;;;;;;14.17;8.07;;;10.60;99.90;;;;;;5073284;28;20425;-67
2024/02/21 10:50:02;;;;;;;11.30;6.50;;;10.50;99.90;;;;;;5074021;28;20922;-63
2024/02/21 10:52:51;;;;;;;14.23;7.83;;;10.30;99.90;;;;;;5073766;28;20788;-64
2024/02/21 10:55:38;;;;;;;10.27;8.07;;;10.20;99.90;;;;;;5093508;22;20561;-63
2024/02/21 10:58:04;;;;;;;10.50;7.40;;;10.20;99.90;;;;;;5086845;28;20432;-61
2024/02/21 11:00:31;;;;;;;13.00;6.70;;;10.20;99.90;;;;;;5058876;28;20465;-62
2024/02/21 11:02:58;;;;;;;9.53;6.73;;;10.20;99.90;;;;;;5076437;28;20421;-61
2024/02/21 11:05:25;;;;;;;11.37;7.63;;;10.30;99.90;;;;;;5082957;28;20440;-62
2024/02/21 11:07:51;;;;;;;225.90;124.80;;;10.20;99.90;;;;;;5082432;28;20463;-60
2024/02/21 11:10:24;;;;;;;7.77;7.00;;;10.70;99.90;;;;;;5077501;28;20543;-66
2024/02/21 11:13:07;;;;;;;14.43;8.23;;;10.60;99.90;;;;;;5075462;28;20437;-60
2024/02/21 11:15:32;;;;;;;14.23;9.50;;;10.70;99.90;;;;;;5078444;28;20534;-61
2024/02/21 11:17:58;;;;;;;8.63;5.70;;;10.70;99.90;;;;;;5083334;28;20527;-60
2024/02/21 11:20:34;;;;;;;13.73;8.40;;;10.70;99.90;;;;;;5080362;28;20670;-60
2024/02/21 11:23:01;;;;;;;16.87;9.93;;;10.90;99.90;;;;;;5083511;28;20231;-60
2024/02/21 11:25:27;;;;;;;11.23;5.50;;;11.10;99.90;;;;;;5085586;28;20443;-60
2024/02/21 11:28:03;;;;;;;11.23;6.57;;;11.00;99.90;;;;;;5085763;28;20408;-60
2024/02/21 11:30:35;;;;;;;7.90;6.07;;;10.90;99.90;;;;;;5073364;28;20427;-60
2024/02/21 11:33:02;;;;;;;10.67;5.10;;;11.00;99.90;;;;;;5081353;28;20563;-61
2024/02/21 11:35:32;;;;;;;11.30;6.27;;;11.00;99.90;;;;;;5079385;28;20472;-60
2024/02/21 11:38:17;;;;;;;7.80;6.00;;;11.30;99.90;;;;;;5081054;28;20420;-60
2024/02/21 11:40:45;;;;;;;9.03;5.50;;;11.30;99.90;;;;;;5079284;28;20428;-64
2024/02/21 11:43:11;;;;;;;10.80;7.00;;;11.50;99.90;;;;;;5082855;28;20420;-64
2024/02/21 11:45:37;;;;;;;8.23;7.00;;;11.10;99.90;;;;;;5080783;28;20467;-66
2024/02/21 11:48:05;;;;;;;10.43;5.30;;;11.20;99.90;;;;;;5080268;28;20190;-61
2024/02/21 11:50:31;;;;;;;6.90;4.93;;;11.30;99.90;;;;;;5081160;28;20428;-61
2024/02/21 11:52:57;;;;;;;6.17;5.57;;;11.20;99.90;;;;;;5081082;28;20420;-60
2024/02/21 11:55:23;;;;;;;8.60;5.70;;;11.20;99.90;;;;;;5076001;28;20213;-62
2024/02/21 11:57:49;;;;;;;5.73;4.80;;;11.20;99.90;;;;;;5080316;28;20419;-59
2024/02/21 12:00:24;;;;;;;6.27;5.40;;;11.20;99.90;;;;;;5081375;28;20608;-59
2024/02/21 12:02:50;;;;;;;9.07;5.60;;;11.30;99.90;;;;;;5074688;28;20424;-59
2024/02/21 12:05:16;;;;;;;7.87;5.33;;;11.40;99.90;;;;;;5082440;28;20541;-61
2024/02/21 12:07:42;;;;;;;7.90;5.83;;;11.60;99.90;;;;;;5085911;28;20986;-60
2024/02/21 12:10:11;;;;;;;7.87;6.03;;;11.60;99.90;;;;;;5081026;28;20434;-61
2024/02/21 12:12:38;;;;;;;8.53;5.90;;;11.50;99.90;;;;;;5077812;28;20507;-62
2024/02/21 12:15:04;;;;;;;5.83;5.20;;;11.70;99.90;;;;;;5090035;28;20468;-62
2024/02/21 12:17:34;;;;;;;5.27;4.63;;;11.70;99.90;;;;;;5082756;28;20515;-59
2024/02/21 12:20:03;;;;;;;8.37;5.77;;;11.70;99.90;;;;;;5087269;28;20423;-61
2024/02/21 12:22:32;;;;;;;10.93;5.77;;;11.80;99.90;;;;;;5083971;28;20439;-61
2024/02/21 12:24:58;;;;;;;7.07;4.83;;;12.00;99.90;;;;;;5083675;28;20452;-61
2024/02/21 12:27:23;;;;;;;7.67;5.20;;;12.00;99.90;;;;;;5078522;28;20420;-60
2024/02/21 12:29:49;;;;;;;6.57;5.87;;;11.90;99.90;;;;;;5079332;28;20748;-61
2024/02/21 12:32:15;;;;;;;17.17;4.90;;;11.90;99.90;;;;;;5070203;28;20544;-61
2024/02/21 12:34:40;;;;;;;6.50;4.73;;;12.00;99.90;;;;;;5079574;28;20206;-61
2024/02/21 12:37:06;;;;;;;5.10;4.40;;;12.10;99.90;;;;;;5080415;28;20320;-61
2024/02/21 12:39:32;;;;;;;8.80;4.50;;;12.10;99.90;;;;;;5081519;28;20189;-60
2024/02/21 12:41:58;;;;;;;8.87;4.63;;;12.50;99.90;;;;;;5079926;28;20421;-61
2024/02/21 12:44:24;;;;;;;7.23;4.23;;;12.60;99.90;;;;;;5077222;28;20820;-61